Time;durP1;ratioP1;P1;durP2;ratioP2;P2;SDS_P1;SDS_P2;PMS_P1;PMS_P2;Temp;Humidity;BMP_temperature;BMP_pressure;BME280_temperature;BME280_humidity;BME280_pressure;Samples;Min_cycle;Max_cycle;Signal;HPM_P1;HPM_P2
2023/02/20 00:02:10;;;;;;;28.37;12.37;;;8.30;99.90;;;;;;4992177;28;20247;-81
2023/02/20 00:04:37;;;;;;;24.90;11.13;;;8.30;99.90;;;;;;4993571;28;20684;-78
2023/02/20 00:07:04;;;;;;;29.27;13.00;;;8.30;99.90;;;;;;4996099;28;20246;-80
2023/02/20 00:09:32;;;;;;;29.40;11.53;;;8.30;99.90;;;;;;4995515;28;20199;-82
2023/02/20 00:11:59;;;;;;;24.07;12.10;;;8.30;99.90;;;;;;4995457;28;20196;-81
2023/02/20 00:14:26;;;;;;;33.20;11.60;;;8.30;99.90;;;;;;4996051;28;20232;-81
2023/02/20 00:16:53;;;;;;;24.27;12.30;;;8.40;99.90;;;;;;4994660;28;20287;-80
2023/02/20 00:19:19;;;;;;;28.20;12.33;;;8.40;99.90;;;;;;4996104;28;20295;-80
2023/02/20 00:21:47;;;;;;;28.37;12.37;;;8.30;99.90;;;;;;4995487;28;20232;-78
2023/02/20 00:24:14;;;;;;;30.07;12.57;;;8.30;99.90;;;;;;4994835;28;20223;-79
2023/02/20 00:26:47;;;;;;;23.30;10.87;;;8.30;99.90;;;;;;4996002;28;20287;-79
2023/02/20 00:29:16;;;;;;;25.40;11.50;;;8.30;99.90;;;;;;4995654;28;20501;-79
2023/02/20 00:31:43;;;;;;;29.40;12.03;;;8.30;99.90;;;;;;4994394;28;20239;-78
2023/02/20 00:34:10;;;;;;;31.03;11.93;;;8.30;99.90;;;;;;4995405;28;20192;-78
2023/02/20 00:36:36;;;;;;;29.27;11.53;;;8.30;99.90;;;;;;5000888;28;20241;-80
2023/02/20 00:39:04;;;;;;;28.47;12.57;;;8.30;99.90;;;;;;5014224;28;20286;-78
2023/02/20 00:41:30;;;;;;;25.73;11.27;;;8.30;99.90;;;;;;5014953;28;20198;-80
2023/02/20 00:43:59;;;;;;;27.73;10.70;;;8.30;99.90;;;;;;5014581;28;20591;-79
2023/02/20 00:46:26;;;;;;;19.80;8.87;;;8.30;99.90;;;;;;5013393;28;20302;-80
2023/02/20 00:48:52;;;;;;;29.43;9.40;;;8.30;99.90;;;;;;5015483;28;20253;-80
2023/02/20 00:51:20;;;;;;;23.83;8.97;;;8.20;99.90;;;;;;5015075;28;20286;-80
2023/02/20 00:53:47;;;;;;;28.77;10.10;;;8.30;99.90;;;;;;5013626;28;20195;-80
2023/02/20 00:56:14;;;;;;;25.07;8.63;;;8.30;99.90;;;;;;4995634;28;20202;-80
2023/02/20 00:58:41;;;;;;;21.47;7.70;;;8.20;99.90;;;;;;4994673;28;20220;-81
2023/02/20 01:01:09;;;;;;;33.70;9.70;;;8.20;99.90;;;;;;4995273;28;20310;-80
2023/02/20 01:03:36;;;;;;;29.87;7.33;;;8.20;99.90;;;;;;4997043;28;20223;-81
2023/02/20 01:06:04;;;;;;;21.17;6.13;;;8.10;99.90;;;;;;4995282;28;20288;-81
2023/02/20 01:08:30;;;;;;;20.83;5.60;;;8.10;99.90;;;;;;4994878;28;20283;-81
2023/02/20 01:10:58;;;;;;;27.37;6.13;;;8.10;99.90;;;;;;4994848;28;20507;-80
2023/02/20 01:13:25;;;;;;;29.67;7.20;;;8.10;99.90;;;;;;4994477;28;20196;-81
2023/02/20 01:15:53;;;;;;;18.70;5.27;;;8.10;99.90;;;;;;4994348;28;20210;-81
2023/02/20 01:18:21;;;;;;;22.87;5.90;;;8.10;99.90;;;;;;4994151;28;20239;-82
2023/02/20 01:20:48;;;;;;;25.60;6.97;;;8.10;99.90;;;;;;4994342;28;20200;-81
2023/02/20 01:23:15;;;;;;;31.17;7.90;;;8.10;99.90;;;;;;4994808;28;20235;-81
2023/02/20 01:25:42;;;;;;;34.33;8.30;;;8.10;99.90;;;;;;4994821;28;20607;-81
2023/02/20 01:28:09;;;;;;;25.00;5.80;;;8.10;99.90;;;;;;4994489;28;20210;-81
2023/02/20 01:30:36;;;;;;;29.43;7.50;;;8.10;99.90;;;;;;4994621;28;20780;-81
2023/02/20 01:33:03;;;;;;;31.43;6.47;;;8.10;99.90;;;;;;4994832;28;20200;-81
2023/02/20 01:35:32;;;;;;;27.47;7.70;;;8.10;99.90;;;;;;4993766;28;20240;-80
2023/02/20 01:37:59;;;;;;;34.97;8.70;;;8.10;99.90;;;;;;4994749;28;20208;-80
2023/02/20 01:40:27;;;;;;;30.50;6.20;;;8.10;99.90;;;;;;4994654;28;20215;-81
2023/02/20 01:42:54;;;;;;;25.60;5.40;;;8.10;99.90;;;;;;4993668;28;20196;-80
2023/02/20 01:45:33;;;;;;;36.53;7.83;;;8.10;99.90;;;;;;4994254;28;20220;-81
2023/02/20 01:48:00;;;;;;;34.47;7.17;;;8.10;99.90;;;;;;4993292;28;20203;-79
2023/02/20 01:50:33;;;;;;;40.70;7.63;;;8.20;99.90;;;;;;4994110;28;20489;-78
2023/02/20 01:53:06;;;;;;;31.00;8.10;;;8.10;99.90;;;;;;4993735;28;20191;-79
2023/02/20 01:55:38;;;;;;;28.33;7.97;;;8.00;99.90;;;;;;4993640;28;20288;-80
2023/02/20 01:58:10;;;;;;;30.73;6.83;;;8.00;99.90;;;;;;4994064;28;20235;-80
2023/02/20 02:00:38;;;;;;;36.67;8.10;;;8.00;99.90;;;;;;4993947;28;20242;-80
2023/02/20 02:03:08;;;;;;;34.17;9.03;;;8.00;99.90;;;;;;4993490;28;20196;-80
2023/02/20 02:05:39;;;;;;;29.87;7.73;;;8.00;99.90;;;;;;4994056;28;20216;-80
2023/02/20 02:08:08;;;;;;;26.50;7.50;;;8.00;99.90;;;;;;4994187;28;20581;-82
2023/02/20 02:10:40;;;;;;;32.67;7.67;;;8.00;99.90;;;;;;4993093;28;20208;-79
2023/02/20 02:13:07;;;;;;;44.70;9.63;;;8.00;99.90;;;;;;4993930;28;20213;-79
2023/02/20 02:15:33;;;;;;;37.50;8.90;;;8.00;99.90;;;;;;4993569;28;20196;-80
2023/02/20 02:18:21;;;;;;;32.27;8.43;;;8.10;99.90;;;;;;4992975;28;20243;-80
2023/02/20 02:21:22;;;;;;;28.97;7.50;;;8.10;99.90;;;;;;4994070;28;20227;-80
2023/02/20 02:24:31;;;;;;;33.97;10.03;;;8.10;99.90;;;;;;4993429;28;20222;-81
2023/02/20 02:27:31;;;;;;;27.83;8.13;;;8.10;99.90;;;;;;4993836;28;20275;-80
2023/02/20 02:30:35;;;;;;;31.77;7.63;;;8.10;99.90;;;;;;4992840;28;20203;-80
2023/02/20 02:33:18;;;;;;;32.10;8.53;;;8.20;99.90;;;;;;4985699;28;20251;-80
2023/02/20 02:36:18;;;;;;;24.60;7.03;;;8.10;99.90;;;;;;4992982;28;20188;-82
2023/02/20 02:38:53;;;;;;;39.93;8.33;;;8.10;99.90;;;;;;4993519;28;20256;-78
2023/02/20 02:41:29;;;;;;;38.97;9.67;;;8.10;99.90;;;;;;5007175;28;20256;-81
2023/02/20 02:44:01;;;;;;;29.57;7.87;;;8.10;99.90;;;;;;5012279;28;20206;-78
2023/02/20 02:46:35;;;;;;;32.10;9.60;;;8.10;99.90;;;;;;5013015;28;20202;-78
2023/02/20 02:49:07;;;;;;;29.70;7.70;;;8.10;99.90;;;;;;5009892;28;20197;-80
2023/02/20 02:51:39;;;;;;;35.07;7.93;;;8.10;99.90;;;;;;5000817;28;20592;-79
2023/02/20 02:54:11;;;;;;;37.60;8.13;;;8.10;99.90;;;;;;4997503;28;20283;-78
2023/02/20 02:56:40;;;;;;;39.40;8.40;;;8.10;99.90;;;;;;4992934;28;20279;-79
2023/02/20 02:59:10;;;;;;;33.70;8.07;;;8.10;99.90;;;;;;4992102;28;20234;-81
2023/02/20 03:01:42;;;;;;;28.63;7.67;;;8.10;99.90;;;;;;4993010;28;20589;-80
2023/02/20 03:04:13;;;;;;;38.13;8.77;;;8.10;99.90;;;;;;4997502;28;20214;-80
2023/02/20 03:06:44;;;;;;;27.93;8.80;;;8.10;99.90;;;;;;5012235;28;20238;-79
2023/02/20 03:09:15;;;;;;;31.17;9.43;;;8.10;99.90;;;;;;5012138;28;20206;-78
2023/02/20 03:11:43;;;;;;;34.77;8.33;;;8.10;99.90;;;;;;5011869;28;20222;-81
2023/02/20 03:17:01;;;;;;;29.40;8.73;;;8.20;99.90;;;;;;4994424;28;20203;-79
2023/02/20 03:19:33;;;;;;;27.80;7.93;;;8.30;99.90;;;;;;4992476;28;20299;-78
2023/02/20 03:22:05;;;;;;;29.00;8.27;;;8.30;99.90;;;;;;4992724;28;20215;-78
2023/02/20 03:24:53;;;;;;;30.13;9.03;;;8.20;99.90;;;;;;4992845;28;20302;-79
2023/02/20 03:27:24;;;;;;;32.07;8.50;;;8.30;99.90;;;;;;4992116;28;20196;-77
2023/02/20 03:29:54;;;;;;;30.03;8.30;;;8.30;99.90;;;;;;4992902;28;20199;-78
2023/02/20 03:43:29;;;;;;;28.53;7.90;;;8.30;99.90;;;;;;4996960;28;20195;-78
2023/02/20 03:46:01;;;;;;;30.10;9.33;;;8.20;99.90;;;;;;4996117;28;20219;-78
2023/02/20 03:48:34;;;;;;;33.00;10.17;;;8.20;99.90;;;;;;4995411;28;20625;-79
2023/02/20 03:51:01;;;;;;;26.60;10.13;;;8.30;99.90;;;;;;4996046;28;20600;-79
2023/02/20 03:53:30;;;;;;;32.17;9.40;;;8.30;99.90;;;;;;4995942;28;20524;-78
2023/02/20 03:56:00;;;;;;;33.60;8.47;;;8.30;99.90;;;;;;4995569;28;20299;-78
2023/02/20 03:58:31;;;;;;;30.33;9.17;;;8.30;99.90;;;;;;4997102;28;20342;-79
2023/02/20 04:01:02;;;;;;;32.17;9.60;;;8.30;99.90;;;;;;4995766;28;20540;-80
2023/02/20 04:03:33;;;;;;;34.53;9.40;;;8.30;99.90;;;;;;4995360;28;20220;-79
2023/02/20 04:06:02;;;;;;;35.00;10.00;;;8.30;99.90;;;;;;4995748;28;20314;-79
2023/02/20 04:08:34;;;;;;;35.60;10.57;;;8.30;99.90;;;;;;4995437;28;20262;-79
2023/02/20 04:11:05;;;;;;;26.60;8.00;;;8.30;99.90;;;;;;4995900;28;20192;-79
2023/02/20 04:13:33;;;;;;;35.83;9.27;;;8.30;99.90;;;;;;4996106;28;20235;-79
2023/02/20 04:16:02;;;;;;;25.37;8.00;;;8.30;99.90;;;;;;4995069;28;20664;-79
2023/02/20 04:18:30;;;;;;;27.13;8.17;;;8.30;99.90;;;;;;4995654;28;20208;-79
2023/02/20 04:21:00;;;;;;;29.50;8.17;;;8.30;99.90;;;;;;4995265;28;20499;-79
2023/02/20 04:23:29;;;;;;;23.37;8.50;;;8.30;99.90;;;;;;4994720;28;20274;-80
2023/02/20 04:26:01;;;;;;;34.57;9.43;;;8.30;99.90;;;;;;4995329;28;20805;-79
2023/02/20 04:28:28;;;;;;;31.57;8.83;;;8.30;99.90;;;;;;4996079;28;20224;-79
2023/02/20 04:30:55;;;;;;;35.97;11.00;;;8.30;99.90;;;;;;4995745;28;20234;-81
2023/02/20 04:33:23;;;;;;;30.23;10.20;;;8.20;99.90;;;;;;4995993;28;20511;-80
2023/02/20 04:35:50;;;;;;;25.30;10.17;;;8.20;99.90;;;;;;4995299;28;20278;-81
2023/02/20 04:38:17;;;;;;;30.23;9.40;;;8.30;99.90;;;;;;4995276;28;20719;-80
2023/02/20 04:40:44;;;;;;;33.33;10.97;;;8.30;99.90;;;;;;4995768;28;20196;-78
2023/02/20 04:43:12;;;;;;;26.73;10.23;;;8.30;99.90;;;;;;4996143;28;20224;-79
2023/02/20 04:45:39;;;;;;;35.80;9.20;;;8.30;99.90;;;;;;4994852;28;20318;-80
2023/02/20 04:48:06;;;;;;;40.23;10.47;;;8.30;99.90;;;;;;4995733;28;20254;-81
2023/02/20 04:50:34;;;;;;;36.13;10.80;;;8.30;99.90;;;;;;5010586;28;20211;-80
2023/02/20 04:53:01;;;;;;;35.57;11.73;;;8.30;99.90;;;;;;5014898;28;20223;-80
2023/02/20 04:55:28;;;;;;;39.27;11.67;;;8.30;99.90;;;;;;5015296;28;20290;-79
2023/02/20 04:57:57;;;;;;;32.80;12.00;;;8.30;99.90;;;;;;5008323;28;20228;-81
2023/02/20 05:00:27;;;;;;;28.53;10.60;;;8.30;99.90;;;;;;4994517;28;20240;-79
2023/02/20 05:02:55;;;;;;;27.80;10.47;;;8.30;99.90;;;;;;4995263;28;20240;-79
2023/02/20 05:05:24;;;;;;;43.10;11.47;;;8.30;99.90;;;;;;4994160;28;20621;-79
2023/02/20 05:07:56;;;;;;;34.50;11.40;;;8.30;99.90;;;;;;4994882;28;20640;-78
2023/02/20 05:10:24;;;;;;;37.57;11.90;;;8.30;99.90;;;;;;4994607;28;20192;-79
2023/02/20 05:12:51;;;;;;;34.40;11.73;;;8.20;99.90;;;;;;4993932;28;20286;-78
2023/02/20 05:15:19;;;;;;;28.50;11.03;;;8.20;99.90;;;;;;4994705;28;20211;-80
2023/02/20 05:17:47;;;;;;;33.77;11.20;;;8.20;99.90;;;;;;4995218;28;20287;-81
2023/02/20 05:20:15;;;;;;;27.30;9.63;;;8.30;99.90;;;;;;4994684;28;20204;-76
2023/02/20 05:22:41;;;;;;;30.07;9.80;;;8.30;99.90;;;;;;4994083;28;20196;-79
2023/02/20 05:25:08;;;;;;;33.83;10.03;;;8.30;99.90;;;;;;4994664;28;20226;-79
2023/02/20 05:27:35;;;;;;;36.87;11.43;;;8.20;99.90;;;;;;4993715;28;20278;-78
2023/02/20 05:30:03;;;;;;;47.00;13.83;;;8.20;99.90;;;;;;4994538;28;20291;-79
2023/02/20 05:32:31;;;;;;;38.63;11.53;;;8.20;99.90;;;;;;4994404;28;20608;-79
2023/02/20 05:34:59;;;;;;;32.03;8.87;;;8.20;99.90;;;;;;4993206;28;20585;-78
2023/02/20 05:37:27;;;;;;;24.00;8.37;;;8.20;99.90;;;;;;4994238;28;20299;-78
2023/02/20 05:39:54;;;;;;;36.37;10.07;;;8.20;99.90;;;;;;4993474;28;20815;-80
2023/02/20 05:42:22;;;;;;;33.33;10.37;;;8.20;99.90;;;;;;4994011;28;20200;-80
2023/02/20 05:44:49;;;;;;;25.50;9.27;;;8.20;99.90;;;;;;4994170;28;20196;-79
2023/02/20 05:47:17;;;;;;;25.83;9.23;;;8.20;99.90;;;;;;4993556;28;20204;-79
2023/02/20 05:49:43;;;;;;;28.27;9.17;;;8.20;99.90;;;;;;4994230;28;20206;-79
2023/02/20 05:52:13;;;;;;;31.30;8.73;;;8.30;99.90;;;;;;4993675;28;20545;-76
2023/02/20 05:54:41;;;;;;;29.03;8.43;;;8.20;99.90;;;;;;4993297;28;20892;-78
2023/02/20 05:57:11;;;;;;;32.43;9.33;;;8.20;99.90;;;;;;4993139;28;20295;-79
2023/02/20 05:59:38;;;;;;;25.57;9.77;;;8.20;99.90;;;;;;4993463;28;20244;-80
2023/02/20 06:02:05;;;;;;;39.90;9.90;;;8.20;99.90;;;;;;4993483;28;20254;-80
2023/02/20 06:04:32;;;;;;;33.73;11.20;;;8.20;99.90;;;;;;4993992;28;20210;-77
2023/02/20 06:06:58;;;;;;;32.00;9.73;;;8.20;99.90;;;;;;4993677;28;20307;-79
2023/02/20 06:09:27;;;;;;;32.23;8.93;;;8.20;99.90;;;;;;4993388;28;20210;-80
2023/02/20 06:11:55;;;;;;;33.80;9.27;;;8.20;99.90;;;;;;4993614;28;20208;-81
2023/02/20 06:14:25;;;;;;;31.17;7.87;;;8.20;99.90;;;;;;4993479;28;20207;-81
2023/02/20 06:16:53;;;;;;;36.43;8.77;;;8.20;99.90;;;;;;4993218;28;20192;-78
2023/02/20 06:19:21;;;;;;;37.53;7.97;;;8.20;99.90;;;;;;4993279;28;20212;-78
2023/02/20 06:21:48;;;;;;;29.33;8.73;;;8.20;99.90;;;;;;4993217;28;20663;-79
2023/02/20 06:24:15;;;;;;;28.70;9.60;;;8.20;99.90;;;;;;4992881;28;20286;-78
2023/02/20 06:26:44;;;;;;;37.30;9.97;;;8.20;99.90;;;;;;4993118;28;20224;-77
2023/02/20 06:29:11;;;;;;;24.97;7.27;;;8.20;99.90;;;;;;4992419;28;20227;-79
2023/02/20 06:31:38;;;;;;;36.43;8.30;;;8.20;99.90;;;;;;4993037;28;20327;-78
2023/02/20 06:34:06;;;;;;;33.53;9.90;;;8.20;99.90;;;;;;4992140;28;20208;-81
2023/02/20 06:36:35;;;;;;;25.20;8.10;;;8.20;99.90;;;;;;4991397;28;20206;-79
2023/02/20 06:39:02;;;;;;;22.57;6.67;;;8.20;99.90;;;;;;5009519;28;20294;-77
2023/02/20 06:41:29;;;;;;;27.50;8.43;;;8.20;99.90;;;;;;5004084;28;20222;-78
2023/02/20 06:43:58;;;;;;;36.53;9.03;;;8.20;99.90;;;;;;4992170;28;20196;-77
2023/02/20 06:46:25;;;;;;;28.97;8.53;;;8.20;99.90;;;;;;4992935;28;20220;-76
2023/02/20 06:48:55;;;;;;;31.90;7.80;;;8.20;99.90;;;;;;4993299;28;20291;-78
2023/02/20 06:51:24;;;;;;;21.27;7.27;;;8.30;99.90;;;;;;4992651;28;20218;-80
2023/02/20 06:53:51;;;;;;;28.47;6.43;;;8.30;99.90;;;;;;4992757;28;20206;-78
2023/02/20 06:56:20;;;;;;;19.43;5.63;;;8.20;99.90;;;;;;4992868;28;20208;-78
2023/02/20 06:58:48;;;;;;;17.10;6.40;;;8.20;99.90;;;;;;4992364;28;20251;-77
2023/02/20 07:01:17;;;;;;;33.00;7.30;;;8.30;99.90;;;;;;4992592;28;20232;-78
2023/02/20 07:03:44;;;;;;;19.90;6.10;;;8.30;99.90;;;;;;4992879;28;20196;-79
2023/02/20 07:06:11;;;;;;;19.70;6.20;;;8.30;99.90;;;;;;4992067;28;20224;-78
2023/02/20 07:08:38;;;;;;;27.23;7.67;;;8.40;99.90;;;;;;4997383;28;20239;-78
2023/02/20 07:11:05;;;;;;;25.03;6.63;;;8.40;99.90;;;;;;5012061;28;20211;-79
2023/02/20 07:13:32;;;;;;;26.77;9.27;;;8.40;99.90;;;;;;5012012;28;20203;-78
2023/02/20 07:15:59;;;;;;;26.83;7.03;;;8.40;99.90;;;;;;5012005;28;20210;-78
2023/02/20 07:18:27;;;;;;;27.63;7.00;;;8.40;99.90;;;;;;5011400;28;20297;-79
2023/02/20 07:20:55;;;;;;;24.73;6.03;;;8.50;99.90;;;;;;5012159;28;20293;-76
2023/02/20 07:23:22;;;;;;;28.17;6.43;;;8.50;99.90;;;;;;5012009;28;20202;-78
2023/02/20 07:25:49;;;;;;;24.00;6.67;;;8.50;99.90;;;;;;5007799;28;20653;-78
2023/02/20 07:28:17;;;;;;;29.00;6.87;;;8.60;99.90;;;;;;4992292;28;20220;-79
2023/02/20 07:30:45;;;;;;;31.67;8.23;;;8.50;99.90;;;;;;4992203;28;20611;-78
2023/02/20 07:33:12;;;;;;;28.67;7.63;;;8.60;99.90;;;;;;4991817;28;20212;-77
2023/02/20 07:35:40;;;;;;;26.53;7.73;;;8.60;99.90;;;;;;4992429;28;20202;-81
2023/02/20 07:38:07;;;;;;;34.07;8.93;;;8.70;99.90;;;;;;4992256;28;20212;-81
2023/02/20 07:40:34;;;;;;;29.00;7.50;;;8.70;99.90;;;;;;4992416;28;20204;-81
2023/02/20 07:43:01;;;;;;;31.37;9.30;;;8.70;99.90;;;;;;4993408;28;20200;-82
2023/02/20 07:45:28;;;;;;;25.50;7.47;;;8.70;99.90;;;;;;4993995;28;20557;-81
2023/02/20 07:47:55;;;;;;;23.47;8.40;;;8.70;99.90;;;;;;4992671;28;20204;-80
2023/02/20 07:50:22;;;;;;;24.17;8.10;;;8.70;99.90;;;;;;4993497;28;20200;-78
2023/02/20 07:52:50;;;;;;;28.13;10.13;;;8.80;99.90;;;;;;4992900;28;20239;-83
2023/02/20 07:55:18;;;;;;;22.63;8.27;;;8.80;99.90;;;;;;4991959;28;20287;-81
2023/02/20 07:57:47;;;;;;;27.00;8.97;;;8.80;99.90;;;;;;4992842;28;20200;-82
2023/02/20 08:00:15;;;;;;;28.60;9.53;;;8.80;99.90;;;;;;5000414;28;20234;-81
2023/02/20 08:02:43;;;;;;;18.83;9.93;;;8.80;99.90;;;;;;4976527;28;20679;-79
2023/02/20 08:05:11;;;;;;;26.47;10.13;;;8.80;99.90;;;;;;5019571;28;20302;-80
2023/02/20 08:07:38;;;;;;;29.10;11.57;;;8.80;99.90;;;;;;5027043;28;20226;-80
2023/02/20 08:10:07;;;;;;;29.17;10.23;;;8.80;99.90;;;;;;5018406;28;20649;-81
2023/02/20 08:12:33;;;;;;;21.03;9.00;;;8.80;99.90;;;;;;5026525;28;20203;-80
2023/02/20 08:15:00;;;;;;;21.23;9.10;;;8.80;99.90;;;;;;5012263;28;20217;-80
2023/02/20 08:17:27;;;;;;;26.10;9.67;;;8.80;99.90;;;;;;5009026;28;20293;-81
2023/02/20 08:19:54;;;;;;;21.80;9.00;;;8.80;99.90;;;;;;5010523;28;20228;-81
2023/02/20 08:22:21;;;;;;;28.27;8.13;;;8.80;99.90;;;;;;4992088;28;20255;-79
2023/02/20 08:24:48;;;;;;;25.53;9.13;;;8.90;99.90;;;;;;4992161;28;20653;-81
2023/02/20 08:27:16;;;;;;;25.17;8.20;;;8.90;99.90;;;;;;4995344;28;20306;-79
2023/02/20 08:29:45;;;;;;;21.47;7.53;;;8.90;99.90;;;;;;4993645;28;20212;-80
2023/02/20 08:32:12;;;;;;;17.77;7.10;;;8.90;99.90;;;;;;5013216;28;20294;-82
2023/02/20 08:34:39;;;;;;;14.00;7.70;;;9.00;99.90;;;;;;5015503;28;20286;-81
2023/02/20 08:37:08;;;;;;;25.67;7.47;;;9.00;99.90;;;;;;5010887;28;20265;-81
2023/02/20 08:39:35;;;;;;;19.63;8.07;;;9.00;99.90;;;;;;4996550;28;20292;-81
2023/02/20 08:42:02;;;;;;;26.20;7.80;;;9.00;99.90;;;;;;5007440;28;20199;-82
2023/02/20 08:44:31;;;;;;;23.83;8.77;;;9.00;99.90;;;;;;5003088;28;20212;-79
2023/02/20 08:46:58;;;;;;;19.30;8.30;;;9.10;99.90;;;;;;5002345;28;20323;-81
2023/02/20 08:49:28;;;;;;;35.13;9.70;;;9.10;99.90;;;;;;5010588;28;20210;-82
2023/02/20 08:51:57;;;;;;;17.70;6.83;;;9.10;99.90;;;;;;5004648;28;20208;-81
2023/02/20 08:54:24;;;;;;;25.00;8.20;;;9.10;99.90;;;;;;4994965;28;20707;-82
2023/02/20 08:56:51;;;;;;;23.47;7.40;;;9.20;99.90;;;;;;5001327;28;20219;-79
2023/02/20 08:59:18;;;;;;;25.67;8.80;;;9.10;99.90;;;;;;4994730;28;20238;-81
2023/02/20 09:01:46;;;;;;;34.67;10.43;;;9.10;99.90;;;;;;5001956;28;20242;-80
2023/02/20 09:04:14;;;;;;;28.50;9.47;;;9.20;99.90;;;;;;4998761;28;20207;-81
2023/02/20 09:06:41;;;;;;;27.27;7.97;;;9.20;99.90;;;;;;5012348;28;20658;-82
2023/02/20 09:09:08;;;;;;;22.43;8.13;;;9.20;99.90;;;;;;5001582;28;20583;-81
2023/02/20 09:11:35;;;;;;;22.93;7.37;;;9.20;99.90;;;;;;5001909;28;20612;-80
2023/02/20 09:14:02;;;;;;;26.43;10.17;;;9.20;99.90;;;;;;5009977;28;20743;-78
2023/02/20 09:16:29;;;;;;;30.93;8.70;;;9.30;99.90;;;;;;5001606;28;20208;-81
2023/02/20 09:18:57;;;;;;;26.07;8.57;;;9.30;99.90;;;;;;4996979;28;20304;-80
2023/02/20 09:21:26;;;;;;;30.90;12.03;;;9.30;99.90;;;;;;5008214;28;20468;-81
2023/02/20 09:23:53;;;;;;;29.80;10.93;;;9.30;99.90;;;;;;4997338;28;20218;-81
2023/02/20 09:26:20;;;;;;;28.93;9.97;;;9.30;99.90;;;;;;5012957;28;20689;-81
2023/02/20 09:28:47;;;;;;;25.90;8.40;;;9.30;99.90;;;;;;5005027;28;20212;-81
2023/02/20 09:31:14;;;;;;;31.73;10.13;;;9.40;99.90;;;;;;5005280;28;20211;-81
2023/02/20 09:33:45;;;;;;;26.23;10.20;;;9.40;99.90;;;;;;4998102;28;20237;-81
2023/02/20 09:36:13;;;;;;;21.10;8.77;;;9.40;99.90;;;;;;5013107;28;20290;-80
2023/02/20 09:38:40;;;;;;;22.27;8.17;;;9.50;99.90;;;;;;4994290;28;20294;-81
2023/02/20 09:41:18;;;;;;;21.33;7.23;;;9.40;99.90;;;;;;4995011;28;20604;-80
2023/02/20 09:43:53;;;;;;;22.53;7.60;;;9.50;99.90;;;;;;4997704;28;20968;-81
2023/02/20 09:46:22;;;;;;;21.17;8.10;;;9.60;99.90;;;;;;4996931;28;20219;-82
2023/02/20 09:49:01;;;;;;;23.77;8.50;;;9.60;99.90;;;;;;5013050;28;20485;-82
2023/02/20 09:51:33;;;;;;;26.53;9.00;;;9.60;99.90;;;;;;5013210;28;20293;-79
2023/02/20 09:54:05;;;;;;;25.17;8.37;;;9.60;99.90;;;;;;4992265;28;20702;-80
2023/02/20 09:56:36;;;;;;;30.50;8.43;;;9.70;99.90;;;;;;5012370;28;20669;-80
2023/02/20 09:59:10;;;;;;;26.27;8.90;;;9.70;99.90;;;;;;5002986;28;20234;-77
2023/02/20 10:01:41;;;;;;;27.20;8.43;;;9.70;99.90;;;;;;5003015;28;20239;-78
2023/02/20 10:04:13;;;;;;;27.43;8.90;;;9.70;99.90;;;;;;5007211;28;20215;-80
2023/02/20 10:06:41;;;;;;;21.03;8.03;;;9.80;99.90;;;;;;4997433;28;20218;-79
2023/02/20 10:09:12;;;;;;;24.90;7.43;;;9.80;99.90;;;;;;5011918;28;20290;-78
2023/02/20 10:11:50;;;;;;;23.90;8.20;;;9.80;99.90;;;;;;5011847;28;20525;-78
2023/02/20 10:14:51;;;;;;;26.70;7.67;;;9.80;99.90;;;;;;5012558;28;20206;-80
2023/02/20 10:17:26;;;;;;;24.87;7.73;;;9.80;99.90;;;;;;5012835;28;20674;-80
2023/02/20 10:20:00;;;;;;;22.77;7.27;;;9.80;99.90;;;;;;5011313;28;20278;-78
2023/02/20 10:22:32;;;;;;;25.20;7.43;;;9.80;99.90;;;;;;5011886;28;20202;-79
2023/02/20 10:25:09;;;;;;;21.90;8.23;;;9.80;99.90;;;;;;5012931;28;20206;-80
2023/02/20 10:27:47;;;;;;;19.10;7.33;;;9.90;99.90;;;;;;5013427;28;20526;-78
2023/02/20 10:30:23;;;;;;;22.47;6.73;;;9.90;99.90;;;;;;5012113;28;20199;-79
2023/02/20 10:32:55;;;;;;;19.77;6.20;;;9.90;99.90;;;;;;5012121;28;20592;-78
2023/02/20 10:35:26;;;;;;;30.83;7.80;;;10.00;99.90;;;;;;4992203;28;20207;-82
2023/02/20 10:37:58;;;;;;;23.40;6.57;;;10.00;99.90;;;;;;5002929;28;20199;-80
2023/02/20 10:40:31;;;;;;;23.53;6.40;;;10.10;99.90;;;;;;5002605;28;20211;-79
2023/02/20 10:43:02;;;;;;;18.17;7.03;;;10.20;99.90;;;;;;4992915;28;20494;-80
2023/02/20 10:45:42;;;;;;;24.93;8.20;;;10.20;99.90;;;;;;4993565;28;20291;-77
2023/02/20 10:48:14;;;;;;;20.67;7.47;;;10.30;99.90;;;;;;5011817;28;20239;-79
2023/02/20 10:50:46;;;;;;;23.33;7.03;;;10.30;99.90;;;;;;5011491;28;20487;-78
2023/02/20 10:53:26;;;;;;;21.13;6.90;;;10.40;99.90;;;;;;5010008;28;20196;-80
2023/02/20 10:56:01;;;;;;;26.60;8.20;;;10.40;99.90;;;;;;5012456;28;20199;-79
2023/02/20 10:58:33;;;;;;;22.75;7.82;;;10.40;99.90;;;;;;5011455;28;20447;-79
2023/02/20 11:01:03;;;;;;;19.20;6.93;;;10.40;99.90;;;;;;5008183;28;20239;-77
2023/02/20 11:03:37;;;;;;;27.80;8.57;;;10.40;99.90;;;;;;4992711;28;20199;-79
2023/02/20 11:06:07;;;;;;;24.33;7.27;;;10.30;99.90;;;;;;4992603;28;20275;-75
2023/02/20 11:08:35;;;;;;;21.70;7.47;;;10.30;99.90;;;;;;4992871;28;20224;-78
2023/02/20 11:11:20;;;;;;;20.47;6.90;;;10.30;99.90;;;;;;4992002;28;20219;-79
2023/02/20 11:13:47;;;;;;;22.47;7.10;;;10.40;99.90;;;;;;5012170;28;20236;-78
2023/02/20 11:16:23;;;;;;;30.13;6.80;;;10.40;99.90;;;;;;5012432;28;20702;-80
2023/02/20 11:18:56;;;;;;;24.43;8.83;;;10.50;99.90;;;;;;4992624;28;20203;-79
2023/02/20 11:21:39;;;;;;;22.00;7.10;;;10.60;99.90;;;;;;4999063;28;20215;-79
2023/02/20 11:24:32;;;;;;;29.53;8.50;;;10.50;99.90;;;;;;4995951;28;20196;-79
2023/02/20 11:27:07;;;;;;;24.33;6.40;;;10.50;99.90;;;;;;4992621;28;20220;-81
2023/02/20 11:29:37;;;;;;;25.13;9.10;;;10.50;99.90;;;;;;4992956;28;20188;-80
2023/02/20 11:32:27;;;;;;;21.67;7.30;;;10.50;99.90;;;;;;4991666;28;20239;-79
2023/02/20 11:35:11;;;;;;;22.40;6.37;;;10.40;99.90;;;;;;4992842;28;20223;-78
2023/02/20 11:37:38;;;;;;;25.93;7.57;;;10.50;99.90;;;;;;4992495;28;20242;-78
2023/02/20 11:40:15;;;;;;;24.07;6.60;;;10.50;99.90;;;;;;4991461;28;20600;-77
2023/02/20 11:42:43;;;;;;;21.60;6.80;;;10.50;99.90;;;;;;5002264;28;20205;-78
2023/02/20 11:45:15;;;;;;;23.27;6.73;;;10.60;99.90;;;;;;5010574;28;20531;-77
2023/02/20 11:47:42;;;;;;;27.60;8.60;;;10.60;99.90;;;;;;4991808;28;20227;-77
2023/02/20 11:50:13;;;;;;;22.57;7.83;;;10.60;99.90;;;;;;4992057;28;20715;-78
2023/02/20 11:52:55;;;;;;;28.53;10.20;;;10.60;99.90;;;;;;4991532;28;20203;-77
2023/02/20 11:55:26;;;;;;;36.87;9.90;;;10.70;99.90;;;;;;4991859;28;20619;-77
2023/02/20 11:57:52;;;;;;;23.43;6.50;;;10.70;99.90;;;;;;4992033;28;20228;-78
2023/02/20 12:00:21;;;;;;;20.60;5.80;;;10.80;99.90;;;;;;4992468;28;20227;-77
2023/02/20 12:02:51;;;;;;;21.43;5.53;;;10.90;99.90;;;;;;5006921;28;20527;-78
2023/02/20 12:05:19;;;;;;;22.40;6.20;;;10.90;99.90;;;;;;5015074;28;20289;-79
2023/02/20 12:07:55;;;;;;;22.40;6.43;;;11.00;99.90;;;;;;5003499;28;20581;-80
2023/02/20 12:10:31;;;;;;;12.37;5.30;;;11.10;99.90;;;;;;4996459;28;20215;-80
2023/02/20 12:12:58;;;;;;;22.37;6.70;;;11.10;99.90;;;;;;4996179;28;20231;-80
2023/02/20 12:15:27;;;;;;;18.27;6.20;;;11.10;99.90;;;;;;4995685;28;20203;-79
2023/02/20 12:18:38;;;;;;;18.33;5.50;;;11.20;99.90;;;;;;4995826;28;20192;-78
2023/02/20 12:21:16;;;;;;;17.10;5.47;;;11.30;99.90;;;;;;5013720;28;20253;-79
2023/02/20 12:23:52;;;;;;;27.50;6.87;;;11.20;99.90;;;;;;5009933;28;20206;-82
2023/02/20 12:26:32;;;;;;;29.50;7.33;;;11.10;99.90;;;;;;4995483;28;20222;-79
2023/02/20 12:29:10;;;;;;;22.07;6.23;;;11.10;99.90;;;;;;4994704;28;20239;-79
2023/02/20 12:31:50;;;;;;;20.23;5.40;;;11.10;99.90;;;;;;4994562;28;20204;-78
2023/02/20 12:34:31;;;;;;;23.37;7.33;;;11.10;99.90;;;;;;4993959;28;20195;-79
2023/02/20 12:37:09;;;;;;;27.97;7.00;;;11.10;99.90;;;;;;4994306;28;20298;-79
2023/02/20 12:39:44;;;;;;;23.73;5.30;;;11.20;99.90;;;;;;4994836;28;20278;-79
2023/02/20 12:42:24;;;;;;;21.70;6.00;;;11.30;99.90;;;;;;4994332;28;20574;-79
2023/02/20 12:45:04;;;;;;;18.50;6.13;;;11.30;99.90;;;;;;4994854;28;20274;-78
2023/02/20 12:47:34;;;;;;;25.30;6.47;;;11.30;99.90;;;;;;4994177;28;20223;-78
2023/02/20 12:50:36;;;;;;;20.87;5.40;;;11.30;99.90;;;;;;4994471;28;20295;-79
2023/02/20 12:53:33;;;;;;;22.53;5.37;;;11.30;99.90;;;;;;4994057;28;20207;-78
2023/02/20 12:56:16;;;;;;;18.23;4.87;;;11.30;99.90;;;;;;4993991;28;20208;-79
2023/02/20 12:58:50;;;;;;;17.13;5.47;;;11.30;99.90;;;;;;4994932;28;20220;-79
2023/02/20 13:01:20;;;;;;;21.90;5.37;;;11.20;99.90;;;;;;4994747;28;20231;-80
2023/02/20 13:03:57;;;;;;;21.60;4.80;;;11.20;99.90;;;;;;4993762;28;20212;-77
2023/02/20 13:06:30;;;;;;;21.47;6.20;;;11.20;99.90;;;;;;4995061;28;20286;-77
2023/02/20 13:09:06;;;;;;;15.50;4.50;;;11.20;99.90;;;;;;4994112;28;20599;-80
2023/02/20 13:11:38;;;;;;;18.07;5.97;;;11.20;99.90;;;;;;4993176;28;20484;-77
2023/02/20 13:14:23;;;;;;;20.23;5.73;;;11.20;99.90;;;;;;4993969;28;20295;-77
2023/02/20 13:16:58;;;;;;;16.23;4.37;;;11.20;99.90;;;;;;4993555;28;20212;-78